Time;durP1;ratioP1;P1;durP2;ratioP2;P2;SDS_P1;SDS_P2;PMS_P1;PMS_P2;Temp;Humidity;BMP_temperature;BMP_pressure;BME280_temperature;BME280_humidity;BME280_pressure;Samples;Min_cycle;Max_cycle;Signal;HPM_P1;HPM_P2
2022/09/12 00:01:52;;;;;;;6.40;2.80;;;;;;;16.42;82.42;100440.26;1791726;78;27505;-72
2022/09/12 00:04:19;;;;;;;6.10;2.60;;;;;;;16.38;82.71;100446.56;1835132;77;26391;-71
2022/09/12 00:06:46;;;;;;;3.15;2.60;;;;;;;16.33;82.62;100444.06;1805167;78;25724;-72
2022/09/12 00:09:14;;;;;;;4.60;2.58;;;;;;;16.28;82.67;100437.30;1769308;81;25696;-72
2022/09/12 00:11:45;;;;;;;10.63;2.47;;;;;;;16.25;82.58;100430.90;1802506;79;25693;-72
2022/09/12 00:14:16;;;;;;;4.42;2.50;;;;;;;16.23;83.21;100436.16;1847840;77;27456;-71
2022/09/12 00:16:43;;;;;;;6.30;2.52;;;;;;;16.16;82.64;100446.91;1800737;79;26094;-72
2022/09/12 00:19:11;;;;;;;4.92;2.35;;;;;;;16.15;82.63;100443.00;1802453;79;25676;-72
2022/09/12 00:21:39;;;;;;;2.45;2.08;;;;;;;16.12;82.75;100436.07;1802722;79;25692;-70
2022/09/12 00:24:08;;;;;;;8.18;2.50;;;;;;;16.10;82.66;100446.25;1785239;78;25823;-72
2022/09/12 00:26:35;;;;;;;5.85;2.55;;;;;;;16.04;83.54;100438.84;1839226;77;28160;-71
2022/09/12 00:29:03;;;;;;;9.28;2.50;;;;;;;15.90;83.21;100430.48;1828425;78;25749;-71
2022/09/12 00:31:29;;;;;;;9.58;2.85;;;;;;;15.84;83.21;100433.88;1825195;77;26293;-72
2022/09/12 00:33:59;;;;;;;8.20;2.65;;;;;;;15.79;82.97;100434.39;1808838;77;25486;-72
2022/09/12 00:36:28;;;;;;;5.30;2.22;;;;;;;15.79;83.13;100425.42;1799276;78;25803;-70
2022/09/12 00:38:56;;;;;;;5.87;2.00;;;;;;;15.79;83.13;100437.09;1832582;76;27589;-71
2022/09/12 00:41:31;;;;;;;7.37;2.47;;;;;;;15.80;83.31;100432.54;1803135;78;25850;-72
2022/09/12 00:44:04;;;;;;;6.95;2.60;;;;;;;15.81;83.38;100430.99;1833422;76;25709;-70
2022/09/12 00:46:51;;;;;;;6.17;3.05;;;;;;;15.83;83.57;100440.30;1816128;77;25727;-72
2022/09/12 00:49:29;;;;;;;7.28;2.77;;;;;;;15.81;83.24;100440.48;1845969;77;25866;-71
2022/09/12 00:52:07;;;;;;;3.60;3.08;;;;;;;15.68;82.85;100443.45;1833776;78;27425;-72
2022/09/12 00:54:56;;;;;;;10.32;3.67;;;;;;;15.51;83.33;100441.34;1835347;77;25950;-71
2022/09/12 00:57:28;;;;;;;3.85;2.95;;;;;;;15.47;83.55;100439.47;1836722;77;25819;-71
2022/09/12 01:00:00;;;;;;;3.70;2.50;;;;;;;15.46;84.01;100440.52;1849162;77;25806;-69
2022/09/12 01:02:28;;;;;;;4.87;2.50;;;;;;;15.48;84.23;100435.74;1847515;77;26174;-72
2022/09/12 01:04:55;;;;;;;5.12;2.77;;;;;;;15.55;84.37;100438.59;1835623;77;27515;-72
2022/09/12 01:07:23;;;;;;;2.83;2.17;;;;;;;15.60;84.39;100434.83;1835248;77;25780;-72
2022/09/12 01:09:50;;;;;;;3.83;2.50;;;;;;;15.67;84.36;100433.13;1835634;77;25675;-70
2022/09/12 01:12:17;;;;;;;8.95;2.02;;;;;;;15.73;84.23;100432.92;1834855;77;25593;-72
2022/09/12 01:14:44;;;;;;;2.50;2.17;;;;;;;15.80;84.22;100430.66;1807961;77;25834;-72
2022/09/12 01:17:14;;;;;;;5.20;3.27;;;;;;;15.84;84.14;100428.46;1845022;77;28346;-72
2022/09/12 01:20:26;;;;;;;3.90;2.65;;;;;;;15.90;84.13;100433.68;1844713;77;25716;-72
2022/09/12 01:23:19;;;;;;;3.17;2.17;;;;;;;15.93;83.87;100434.16;1811748;78;26233;-71
2022/09/12 01:26:25;;;;;;;6.83;2.60;;;;;;;15.98;83.64;100427.37;1820628;78;25727;-72
2022/09/12 01:29:21;;;;;;;7.97;2.52;;;;;;;16.01;83.45;100427.85;1783320;80;25733;-72
2022/09/12 01:31:56;;;;;;;4.40;2.35;;;;;;;16.03;83.13;100427.16;1821780;77;27639;-72
2022/09/12 01:34:37;;;;;;;10.28;2.08;;;;;;;16.03;82.98;100429.02;1825453;77;25781;-72
2022/09/12 01:37:33;;;;;;;5.17;1.87;;;;;;;15.98;82.69;100428.73;1836095;77;25704;-72
2022/09/12 01:40:08;;;;;;;5.28;2.00;;;;;;;15.92;82.56;100421.62;1837159;77;25764;-72
2022/09/12 01:43:05;;;;;;;4.47;2.35;;;;;;;15.86;82.26;100428.30;1847293;77;25717;-72
2022/09/12 01:45:54;;;;;;;6.35;2.35;;;;;;;15.83;82.35;100425.91;1847028;77;27455;-71
2022/09/12 01:48:30;;;;;;;6.45;2.00;;;;;;;15.79;82.50;100424.89;1844862;77;25994;-71
2022/09/12 01:51:02;;;;;;;9.53;2.40;;;;;;;15.77;82.51;100429.67;1828946;77;25803;-71
2022/09/12 01:53:42;;;;;;;17.42;2.80;;;;;;;15.76;82.67;100430.70;1792425;79;25841;-72
2022/09/12 01:56:14;;;;;;;8.93;2.70;;;;;;;15.76;82.76;100429.84;1806516;77;25714;-72
2022/09/12 01:58:50;;;;;;;7.92;2.50;;;;;;;15.70;82.64;100425.97;1844317;77;27052;-72
2022/09/12 02:01:33;;;;;;;7.53;3.00;;;;;;;15.65;82.59;100440.58;1828150;77;26354;-72
2022/09/12 02:04:11;;;;;;;8.50;3.08;;;;;;;15.52;82.74;100440.30;1846955;77;25619;-72
2022/09/12 02:06:50;;;;;;;10.85;3.62;;;;;;;15.30;83.63;100439.55;1817977;77;26327;-72
2022/09/12 02:09:31;;;;;;;6.12;3.70;;;;;;;15.21;83.81;100446.54;1802708;79;25746;-72
2022/09/12 02:12:01;;;;;;;6.80;3.27;;;;;;;15.17;84.25;100439.27;1808407;77;27519;-72
2022/09/12 02:14:41;;;;;;;4.60;3.55;;;;;;;15.18;84.56;100439.09;1848147;77;26273;-71
2022/09/12 02:17:12;;;;;;;5.67;3.80;;;;;;;15.18;84.60;100442.32;1840358;77;25729;-72
2022/09/12 02:20:03;;;;;;;8.03;3.58;;;;;;;15.22;85.12;100444.17;1834425;77;25775;-72
2022/09/12 02:22:32;;;;;;;4.92;3.60;;;;;;;15.25;85.05;100444.66;1821994;77;25938;-68
2022/09/12 02:25:00;;;;;;;5.33;3.50;;;;;;;15.24;85.42;100442.97;1830750;77;27441;-72
2022/09/12 02:27:49;;;;;;;7.15;3.52;;;;;;;15.24;85.61;100433.48;1830028;77;25714;-72
2022/09/12 02:30:18;;;;;;;5.28;3.67;;;;;;;15.24;85.88;100437.55;1828034;78;25728;-72
2022/09/12 02:33:02;;;;;;;4.33;3.33;;;;;;;15.22;85.74;100440.94;1828257;77;25849;-71
2022/09/12 02:35:52;;;;;;;6.30;4.35;;;;;;;15.21;85.81;100443.30;1851838;77;26293;-72
2022/09/12 02:38:36;;;;;;;6.50;3.90;;;;;;;15.22;86.07;100447.71;1861767;77;27513;-72
2022/09/12 02:41:03;;;;;;;7.55;3.75;;;;;;;15.16;86.22;100449.77;1835838;77;25515;-72
2022/09/12 02:43:31;;;;;;;8.35;3.80;;;;;;;15.12;86.95;100450.63;1836629;77;25721;-72
2022/09/12 02:45:58;;;;;;;5.80;3.95;;;;;;;15.07;87.35;100446.23;1826401;76;25787;-72
2022/09/12 02:48:32;;;;;;;7.78;3.50;;;;;;;15.08;87.10;100455.22;1849335;77;25686;-71
2022/09/12 02:51:00;;;;;;;6.47;4.15;;;;;;;15.06;87.59;100454.02;1817638;77;27471;-72
2022/09/12 02:53:28;;;;;;;9.23;4.70;;;;;;;14.98;87.80;100465.73;1822462;77;25830;-72
2022/09/12 02:55:55;;;;;;;9.20;3.95;;;;;;;14.92;88.38;100469.14;1834358;77;25754;-71
2022/09/12 02:58:26;;;;;;;11.78;4.22;;;;;;;14.85;89.06;100473.53;1834985;77;25763;-72
2022/09/12 03:01:26;;;;;;;12.05;3.85;;;;;;;14.82;88.81;100469.83;1834653;77;25510;-71
2022/09/12 03:04:07;;;;;;;7.60;3.65;;;;;;;14.82;89.19;100468.48;1835305;78;27456;-72
2022/09/12 03:07:15;;;;;;;11.75;3.65;;;;;;;14.84;89.54;100475.41;1825254;78;25791;-70
2022/09/12 03:10:10;;;;;;;9.58;4.95;;;;;;;14.85;89.79;100469.47;1835262;77;25640;-72
2022/09/12 03:13:21;;;;;;;7.83;6.00;;;;;;;14.91;89.51;100474.22;1802773;79;25808;-71
2022/09/12 03:16:14;;;;;;;5.62;3.40;;;;;;;15.00;89.23;100476.39;1792407;79;25703;-71
2022/09/12 03:19:07;;;;;;;8.55;3.90;;;;;;;15.09;88.72;100485.36;1807111;78;27412;-70
2022/09/12 03:21:49;;;;;;;11.85;4.10;;;;;;;15.10;88.17;100481.63;1808027;78;26289;-72
2022/09/12 03:24:27;;;;;;;8.55;4.10;;;;;;;15.13;88.07;100482.62;1813824;78;25695;-71
2022/09/12 03:27:08;;;;;;;10.35;4.12;;;;;;;15.16;87.91;100479.05;1789329;80;25761;-71
2022/09/12 03:29:36;;;;;;;13.15;4.58;;;;;;;15.20;87.55;100479.55;1808423;79;26061;-71
2022/09/12 03:32:03;;;;;;;17.52;4.37;;;;;;;15.21;87.42;100480.41;1783438;79;27476;-71
2022/09/12 03:34:30;;;;;;;7.28;3.58;;;;;;;15.21;87.07;100485.30;1808200;77;25695;-71
2022/09/12 03:36:57;;;;;;;11.15;3.90;;;;;;;15.19;86.72;100483.30;1808409;78;25651;-70
2022/09/12 03:39:26;;;;;;;10.23;3.80;;;;;;;15.18;86.71;100486.50;1812161;78;25825;-72
2022/09/12 03:41:55;;;;;;;15.55;4.05;;;;;;;15.18;86.69;100492.45;1807786;78;25746;-71
2022/09/12 03:44:22;;;;;;;19.12;3.55;;;;;;;15.17;86.67;100492.94;1808007;78;27468;-72
2022/09/12 03:46:49;;;;;;;10.98;3.87;;;;;;;15.18;86.42;100495.98;1808031;77;26131;-71
2022/09/12 03:49:16;;;;;;;10.58;3.65;;;;;;;15.17;86.28;100504.30;1808201;79;25734;-72
2022/09/12 03:51:43;;;;;;;16.32;3.50;;;;;;;15.18;86.24;100504.64;1807971;78;25694;-72
2022/09/12 03:54:11;;;;;;;19.02;4.92;;;;;;;15.16;85.88;100510.21;1808003;78;25723;-72
2022/09/12 03:56:39;;;;;;;15.48;4.45;;;;;;;15.17;86.02;100517.84;1805554;78;27421;-72
2022/09/12 03:59:07;;;;;;;7.65;3.83;;;;;;;15.17;85.98;100516.49;1767189;80;25758;-72
2022/09/12 04:01:36;;;;;;;12.00;3.83;;;;;;;15.16;85.81;100524.28;1783830;79;25712;-71
2022/09/12 04:04:03;;;;;;;11.08;3.65;;;;;;;15.16;85.99;100524.28;1774201;80;26185;-70
2022/09/12 04:06:30;;;;;;;12.33;4.15;;;;;;;15.16;86.20;100522.41;1766016;80;25829;-71
2022/09/12 04:08:59;;;;;;;9.70;4.05;;;;;;;15.19;86.24;100525.30;1778210;80;27469;-71
2022/09/12 04:11:25;;;;;;;16.35;3.85;;;;;;;15.20;86.04;100522.90;1793605;78;25780;-71
2022/09/12 04:13:52;;;;;;;11.73;3.67;;;;;;;15.23;85.78;100529.34;1784127;79;25883;-70
2022/09/12 04:16:20;;;;;;;18.98;3.65;;;;;;;15.28;85.91;100526.97;1812792;77;25653;-72
2022/09/12 04:18:47;;;;;;;9.20;3.80;;;;;;;15.33;85.96;100525.93;1823588;77;25785;-71
2022/09/12 04:21:17;;;;;;;13.93;4.28;;;;;;;15.40;86.01;100526.58;1815070;77;27509;-71
2022/09/12 04:23:45;;;;;;;10.95;3.37;;;;;;;15.48;85.55;100529.27;1821859;77;25820;-71
2022/09/12 04:26:13;;;;;;;10.45;3.87;;;;;;;15.51;85.34;100522.15;1825141;77;25712;-71
2022/09/12 04:28:41;;;;;;;10.95;2.90;;;;;;;15.59;85.37;100528.06;1820431;77;25674;-71
2022/09/12 04:31:14;;;;;;;5.28;2.35;;;;;;;15.67;85.62;100529.88;1841470;77;25704;-71
2022/09/12 04:33:41;;;;;;;;;;;;;;;15.73;84.92;100525.13;1829048;77;27449;-71
2022/09/12 04:36:15;;;;;;;15.80;4.25;;;;;;;15.77;84.29;100525.09;1820930;77;26285;-71
2022/09/12 04:38:42;;;;;;;5.33;2.58;;;;;;;15.83;84.60;100529.80;1832379;77;25660;-69
2022/09/12 04:41:19;;;;;;;10.30;2.42;;;;;;;15.89;83.82;100529.15;1826628;78;25778;-71
2022/09/12 04:43:52;;;;;;;9.50;2.72;;;;;;;15.93;83.53;100541.32;1820966;77;25716;-71
2022/09/12 04:46:20;;;;;;;4.47;2.37;;;;;;;15.98;83.05;100545.38;1820800;77;28333;-71
2022/09/12 04:48:48;;;;;;;2.20;1.92;;;;;;;15.98;83.05;100544.02;1818331;77;25789;-71
2022/09/12 04:51:21;;;;;;;6.15;3.10;;;;;;;16.02;82.97;100554.34;1823090;77;25729;-71
2022/09/12 04:53:51;;;;;;;6.97;2.35;;;;;;;16.05;82.73;100557.20;1820264;77;25717;-72
2022/09/12 04:56:20;;;;;;;9.13;2.65;;;;;;;16.11;82.62;100556.48;1819649;78;25744;-71
2022/09/12 04:58:48;;;;;;;3.90;2.58;;;;;;;16.17;81.76;100550.86;1819350;77;28462;-72
2022/09/12 05:01:19;;;;;;;9.95;2.50;;;;;;;16.16;81.68;100558.17;1819195;77;25735;-71
2022/09/12 05:03:48;;;;;;;14.43;4.33;;;;;;;16.22;81.65;100553.38;1819050;78;25732;-71
2022/09/12 05:06:19;;;;;;;5.00;2.80;;;;;;;16.29;80.79;100556.23;1819609;77;26102;-71
2022/09/12 05:08:46;;;;;;;4.45;2.50;;;;;;;16.27;80.47;100553.67;1821633;77;25712;-70
2022/09/12 05:11:22;;;;;;;6.72;2.30;;;;;;;16.31;80.74;100558.26;1811590;77;27531;-70
2022/09/12 05:13:50;;;;;;;4.85;2.95;;;;;;;16.39;80.17;100555.98;1759976;81;26551;-72
2022/09/12 05:16:19;;;;;;;13.32;2.77;;;;;;;16.42;79.99;100561.06;1839462;77;26484;-72
2022/09/12 05:18:49;;;;;;;3.98;2.35;;;;;;;16.51;79.41;100564.06;1812130;78;25794;-69
2022/09/12 05:21:19;;;;;;;8.25;4.08;;;;;;;16.61;78.92;100566.52;1802029;78;25807;-72
2022/09/12 05:23:47;;;;;;;11.95;3.10;;;;;;;16.68;78.05;100568.01;1800065;78;28538;-71
2022/09/12 05:26:15;;;;;;;14.40;2.90;;;;;;;16.73;76.28;100561.01;1765021;80;25835;-71
2022/09/12 05:28:43;;;;;;;5.40;2.45;;;;;;;16.74;74.96;100561.84;1789139;78;25744;-71
2022/09/12 05:31:25;;;;;;;7.58;2.27;;;;;;;16.78;75.10;100567.75;1824183;77;26291;-71
2022/09/12 05:33:54;;;;;;;10.35;3.00;;;;;;;16.82;74.93;100567.20;1815856;77;25755;-68
2022/09/12 05:36:28;;;;;;;7.40;3.20;;;;;;;16.92;74.85;100574.27;1820412;77;27523;-72
2022/09/12 05:38:55;;;;;;;12.53;2.60;;;;;;;16.98;74.55;100577.66;1822543;77;25947;-73
2022/09/12 05:41:26;;;;;;;4.58;2.37;;;;;;;17.02;72.66;100574.39;1786324;78;25793;-73
2022/09/12 05:44:00;;;;;;;9.58;3.05;;;;;;;16.83;70.22;100566.71;1819686;77;25748;-71
2022/09/12 05:46:30;;;;;;;11.20;2.92;;;;;;;16.63;70.34;100570.44;1825049;77;25726;-72
2022/09/12 05:49:02;;;;;;;12.05;3.05;;;;;;;16.63;70.75;100575.34;1819739;77;27510;-69
2022/09/12 05:51:33;;;;;;;11.05;3.45;;;;;;;16.69;71.50;100571.89;1826060;77;25711;-72
2022/09/12 05:54:02;;;;;;;10.15;2.90;;;;;;;16.79;71.74;100567.59;1801555;78;25781;-73
2022/09/12 05:56:32;;;;;;;18.20;3.22;;;;;;;16.84;70.85;100563.80;1800703;78;26212;-72
2022/09/12 05:59:03;;;;;;;8.68;2.55;;;;;;;16.82;70.30;100569.92;1810823;77;25826;-70
2022/09/12 06:01:33;;;;;;;11.33;3.25;;;;;;;16.72;69.72;100569.31;1794117;78;28317;-72
2022/09/12 06:04:04;;;;;;;9.85;3.00;;;;;;;16.76;70.26;100572.55;1789607;79;25806;-73
2022/09/12 06:06:42;;;;;;;14.53;3.10;;;;;;;16.82;70.47;100571.28;1796493;78;25917;-71
2022/09/12 06:09:10;;;;;;;5.62;2.62;;;;;;;16.88;70.66;100571.06;1799009;78;25761;-71
2022/09/12 06:11:39;;;;;;;10.88;2.52;;;;;;;16.95;69.83;100565.26;1790295;78;25732;-72
2022/09/12 06:14:09;;;;;;;8.30;4.05;;;;;;;16.94;69.56;100573.11;1797896;79;27475;-72
2022/09/12 06:16:37;;;;;;;13.08;3.00;;;;;;;16.96;69.40;100576.98;1796213;78;25830;-73
2022/09/12 06:19:09;;;;;;;12.75;2.80;;;;;;;16.89;68.15;100574.98;1792507;78;25747;-73
2022/09/12 06:21:36;;;;;;;5.90;2.62;;;;;;;16.78;67.09;100567.25;1792069;78;25812;-72
2022/09/12 06:24:06;;;;;;;9.50;2.20;;;;;;;16.78;67.36;100571.83;1799028;78;25744;-72
2022/09/12 06:26:33;;;;;;;4.97;2.15;;;;;;;16.76;67.03;100577.98;1795547;78;27446;-72
2022/09/12 06:29:03;;;;;;;3.25;1.95;;;;;;;16.78;66.44;100581.33;1796849;78;26345;-71
2022/09/12 06:31:34;;;;;;;5.17;2.37;;;;;;;16.77;66.73;100591.37;1798017;78;25784;-72
2022/09/12 06:34:05;;;;;;;5.03;2.22;;;;;;;16.70;66.42;100590.41;1797859;78;25784;-73
2022/09/12 06:36:36;;;;;;;11.48;2.58;;;;;;;16.77;66.39;100590.50;1796958;78;25716;-70
2022/09/12 06:39:07;;;;;;;6.92;2.50;;;;;;;16.73;66.10;100590.89;1797535;78;28582;-72
2022/09/12 06:41:34;;;;;;;3.10;2.08;;;;;;;16.67;65.09;100584.83;1797401;78;25944;-72
2022/09/12 06:44:03;;;;;;;4.08;2.12;;;;;;;16.66;64.87;100589.06;1799104;78;25876;-72
2022/09/12 06:46:30;;;;;;;8.53;2.08;;;;;;;16.61;64.02;100591.49;1793195;78;25690;-71
2022/09/12 06:48:59;;;;;;;6.90;2.05;;;;;;;16.61;64.78;100602.35;1795491;78;25692;-72
2022/09/12 06:51:28;;;;;;;4.15;2.25;;;;;;;16.59;64.13;100602.02;1796535;78;28160;-72
2022/09/12 06:53:56;;;;;;;5.37;2.17;;;;;;;16.57;64.06;100600.52;1797553;78;25926;-71
2022/09/12 06:56:26;;;;;;;8.08;1.95;;;;;;;16.62;63.92;100598.09;1800184;78;25847;-71
2022/09/12 06:58:56;;;;;;;4.17;1.75;;;;;;;16.70;63.58;100595.84;1794304;78;25701;-72
2022/09/12 07:01:28;;;;;;;4.58;2.17;;;;;;;16.83;63.05;100598.78;1800373;78;25831;-71
2022/09/12 07:03:58;;;;;;;7.08;1.87;;;;;;;16.97;62.70;100590.91;1795803;78;29735;-71
2022/09/12 07:06:32;;;;;;;11.90;2.08;;;;;;;17.18;62.75;100588.32;1795599;78;25834;-73
2022/09/12 07:09:04;;;;;;;3.55;2.25;;;;;;;17.44;62.91;100587.58;1797939;78;25744;-73
2022/09/12 07:11:35;;;;;;;8.30;2.15;;;;;;;17.66;61.93;100583.08;1797874;78;25809;-72
2022/09/12 07:14:04;;;;;;;4.42;1.67;;;;;;;17.82;56.96;100582.05;1793943;79;25698;-70
2022/09/12 07:16:35;;;;;;;3.85;1.75;;;;;;;17.75;58.51;100590.64;1802342;78;27449;-72
2022/09/12 07:19:04;;;;;;;3.52;1.60;;;;;;;17.80;59.49;100586.30;1797174;79;25462;-72
2022/09/12 07:21:31;;;;;;;8.75;2.47;;;;;;;17.87;59.40;100595.09;1799446;79;25966;-72
2022/09/12 07:23:59;;;;;;;8.65;2.10;;;;;;;17.77;57.06;100593.50;1798304;78;25701;-71
2022/09/12 07:26:28;;;;;;;4.50;2.33;;;;;;;17.76;56.55;100593.17;1789494;78;25718;-72
2022/09/12 07:28:58;;;;;;;4.35;2.00;;;;;;;17.71;56.34;100598.31;1800670;79;27551;-71
2022/09/12 07:31:27;;;;;;;8.80;2.08;;;;;;;17.73;56.93;100600.34;1793605;78;25821;-70
2022/09/12 07:33:54;;;;;;;5.25;1.52;;;;;;;17.80;57.52;100600.44;1797397;78;25689;-72
2022/09/12 07:36:24;;;;;;;6.08;2.22;;;;;;;17.78;55.37;100605.22;1797451;78;26692;-72
2022/09/12 07:38:56;;;;;;;5.12;1.82;;;;;;;17.72;56.88;100594.56;1773417;78;25721;-71
2022/09/12 07:41:28;;;;;;;4.62;2.55;;;;;;;17.74;55.71;100598.48;1810262;78;27649;-71
2022/09/12 07:43:59;;;;;;;10.68;2.20;;;;;;;17.71;55.62;100594.23;1796459;78;25775;-72
2022/09/12 07:46:29;;;;;;;34.23;22.70;;;;;;;17.66;55.41;100598.88;1798544;78;25697;-72
2022/09/12 07:48:59;;;;;;;6.33;2.75;;;;;;;17.71;55.92;100600.20;1801133;78;25751;-73
2022/09/12 07:51:28;;;;;;;5.62;1.90;;;;;;;17.73;56.28;100604.95;1795532;78;25760;-71
2022/09/12 07:53:56;;;;;;;5.95;1.67;;;;;;;17.79;56.53;100612.34;1800583;79;28105;-72
2022/09/12 07:56:24;;;;;;;6.37;2.10;;;;;;;17.89;56.17;100599.30;1800010;79;25495;-72
2022/09/12 07:58:51;;;;;;;11.80;1.77;;;;;;;17.98;56.23;100598.20;1801013;78;25683;-73
2022/09/12 08:01:22;;;;;;;1.62;1.45;;;;;;;18.24;55.93;100589.21;1799487;78;25793;-69
2022/09/12 08:03:58;;;;;;;5.47;1.85;;;;;;;18.40;52.31;100579.44;1797055;78;25702;-71
2022/09/12 08:06:29;;;;;;;6.85;1.65;;;;;;;18.52;53.31;100578.91;1800509;78;28049;-72
2022/09/12 08:08:59;;;;;;;3.50;1.40;;;;;;;18.76;53.28;100577.69;1800508;78;25749;-72
2022/09/12 08:11:29;;;;;;;4.17;1.90;;;;;;;18.82;51.67;100583.74;1784182;78;25681;-71
2022/09/12 08:13:57;;;;;;;4.47;1.95;;;;;;;18.93;51.32;100575.05;1769643;81;26254;-71
2022/09/12 08:16:30;;;;;;;3.50;2.00;;;;;;;18.90;51.61;100588.19;1773942;78;25748;-72
2022/09/12 08:18:59;;;;;;;10.63;2.10;;;;;;;18.90;52.41;100582.24;1786615;80;27469;-72
2022/09/12 08:21:30;;;;;;;47.78;3.15;;;;;;;18.89;50.50;100581.05;1785895;80;25777;-72
2022/09/12 08:24:04;;;;;;;4.37;1.92;;;;;;;18.82;50.23;100576.06;1786700;80;25716;-73
2022/09/12 08:26:34;;;;;;;5.75;1.60;;;;;;;18.63;48.96;100573.48;1787310;79;25756;-72
2022/09/12 08:29:03;;;;;;;3.42;1.75;;;;;;;18.35;50.48;100577.80;1780208;80;25699;-72
2022/09/12 08:31:35;;;;;;;6.97;2.70;;;;;;;18.21;50.93;100572.71;1785021;80;27395;-72
2022/09/12 08:33:59;;;;;;;1.72;1.52;;;;;;;18.19;51.82;100571.22;1787704;79;25864;-72
2022/09/12 08:36:28;;;;;;;8.70;2.83;;;;;;;18.24;52.45;100571.52;1786826;80;25698;-70
2022/09/12 08:39:02;;;;;;;4.00;1.95;;;;;;;18.30;52.71;100580.27;1787893;79;25635;-73
2022/09/12 08:41:38;;;;;;;9.50;2.77;;;;;;;18.36;53.26;100575.41;1788883;80;25811;-71
2022/09/12 08:44:42;;;;;;;5.08;1.65;;;;;;;18.40;53.32;100565.83;1765061;80;27467;-73
2022/09/12 08:47:16;;;;;;;5.60;1.77;;;;;;;18.39;52.51;100570.08;1783834;80;25741;-73
2022/09/12 08:50:10;;;;;;;16.57;1.90;;;;;;;18.29;53.12;100575.84;1820222;78;25752;-72
2022/09/12 08:53:01;;;;;;;8.88;2.30;;;;;;;18.28;53.71;100574.16;1823490;78;25698;-72
2022/09/12 08:55:54;;;;;;;2.90;1.80;;;;;;;18.14;52.99;100573.16;1825396;77;25655;-71
2022/09/12 08:58:23;;;;;;;6.17;2.55;;;;;;;18.09;53.76;100570.17;1822472;78;27396;-71
2022/09/12 09:01:25;;;;;;;8.38;2.90;;;;;;;18.19;54.05;100569.86;1811002;77;25912;-66
2022/09/12 09:04:10;;;;;;;6.40;2.83;;;;;;;18.32;53.49;100568.67;1752753;80;25636;-72
2022/09/12 09:07:15;;;;;;;8.80;3.42;;;;;;;18.12;52.72;100568.41;1785753;80;25883;-73
2022/09/12 09:10:05;;;;;;;9.35;2.25;;;;;;;18.10;53.07;100560.98;1780763;80;27292;-72
2022/09/12 09:12:39;;;;;;;2.72;2.10;;;;;;;18.10;53.07;100565.06;1768385;80;27952;-71
2022/09/12 09:15:42;;;;;;;11.53;2.02;;;;;;;18.18;53.60;100562.73;1808887;77;25758;-71
2022/09/12 09:18:28;;;;;;;4.83;2.05;;;;;;;18.18;53.64;100572.25;1828075;77;25746;-72
2022/09/12 09:21:26;;;;;;;2.50;1.95;;;;;;;18.26;53.59;100563.97;1778772;80;25912;-70
2022/09/12 09:23:58;;;;;;;7.90;2.10;;;;;;;18.40;51.18;100561.73;1800297;78;25779;-70
2022/09/12 09:26:40;;;;;;;10.23;1.87;;;;;;;18.41;51.96;100561.20;1820126;77;27519;-69
2022/09/12 09:29:27;;;;;;;5.67;2.05;;;;;;;18.52;51.73;100562.06;1826617;78;25757;-71
2022/09/12 09:31:57;;;;;;;8.20;2.00;;;;;;;18.62;50.46;100563.09;1821976;77;25818;-72
2022/09/12 09:34:30;;;;;;;3.37;1.75;;;;;;;18.74;50.32;100563.41;1827091;77;25784;-72
2022/09/12 09:37:14;;;;;;;2.83;1.90;;;;;;;18.77;49.94;100563.03;1799825;78;25767;-72
2022/09/12 09:39:53;;;;;;;8.10;2.10;;;;;;;18.74;49.26;100562.91;1821968;77;29614;-71
2022/09/12 09:42:52;;;;;;;7.90;1.72;;;;;;;18.82;49.33;100575.56;1811089;77;25750;-72
2022/09/12 09:45:23;;;;;;;4.37;2.33;;;;;;;19.02;50.05;100572.18;1801475;78;26396;-72
2022/09/12 09:48:18;;;;;;;5.45;2.00;;;;;;;19.26;49.51;100568.17;1797131;78;25868;-70
2022/09/12 09:50:48;;;;;;;2.72;1.85;;;;;;;19.39;49.13;100573.74;1792265;80;25867;-71
2022/09/12 09:53:33;;;;;;;39.00;2.40;;;;;;;19.75;49.07;100569.11;1833163;77;28216;-72
2022/09/12 09:56:07;;;;;;;6.40;1.77;;;;;;;20.08;46.62;100563.52;1824326;77;25697;-71
2022/09/12 09:58:36;;;;;;;3.30;1.80;;;;;;;20.10;47.39;100575.91;1834444;77;25721;-71
2022/09/12 10:01:15;;;;;;;6.47;2.05;;;;;;;20.08;47.02;100574.44;1800106;79;25741;-70
2022/09/12 10:03:55;;;;;;;6.28;2.10;;;;;;;20.50;46.41;100564.26;1800596;78;25729;-71
2022/09/12 10:06:36;;;;;;;5.67;2.20;;;;;;;20.88;45.81;100561.52;1801259;78;27440;-70
2022/09/12 10:09:09;;;;;;;6.97;2.00;;;;;;;21.07;46.43;100567.48;1802048;78;25737;-72
2022/09/12 10:11:37;;;;;;;6.28;1.67;;;;;;;21.88;45.57;100564.11;1794157;78;25741;-72
2022/09/12 10:14:04;;;;;;;3.47;1.70;;;;;;;21.84;43.35;100560.66;1797876;78;25785;-72
2022/09/12 10:16:34;;;;;;;3.10;1.60;;;;;;;21.31;43.44;100558.84;1802315;78;25749;-73
2022/09/12 10:19:03;;;;;;;5.58;2.20;;;;;;;21.11;43.71;100561.10;1797054;78;28556;-73
2022/09/12 10:21:44;;;;;;;10.38;1.92;;;;;;;20.76;44.88;100565.38;1819447;78;26110;-74
2022/09/12 10:24:24;;;;;;;4.17;1.70;;;;;;;20.57;45.57;100562.41;1800388;78;25655;-72
2022/09/12 10:26:59;;;;;;;5.30;1.57;;;;;;;20.52;45.24;100562.70;1802890;78;25925;-71
2022/09/12 10:29:34;;;;;;;5.25;1.70;;;;;;;20.38;45.28;100565.93;1778656;79;25820;-71
2022/09/12 10:32:05;;;;;;;4.20;1.67;;;;;;;20.29;45.91;100574.31;1802353;78;27478;-72
2022/09/12 10:34:45;;;;;;;3.12;1.47;;;;;;;20.35;46.64;100575.89;1802871;78;25811;-72
2022/09/12 10:37:31;;;;;;;5.67;1.82;;;;;;;20.46;46.27;100572.56;1804010;78;25530;-71
2022/09/12 10:40:02;;;;;;;7.95;1.40;;;;;;;20.46;46.03;100573.94;1786739;79;26824;-73
2022/09/12 10:43:00;;;;;;;9.23;2.83;;;;;;;20.52;46.58;100579.10;1802648;78;25831;-72
2022/09/12 10:45:36;;;;;;;4.70;2.10;;;;;;;20.49;46.31;100573.50;1803185;78;27638;-70
2022/09/12 10:48:28;;;;;;;1.72;1.47;;;;;;;20.18;44.39;100583.92;1803802;78;25844;-69
2022/09/12 10:50:56;;;;;;;2.90;1.30;;;;;;;19.69;44.18;100593.95;1776739;78;25958;-70
2022/09/12 10:53:28;;;;;;;3.10;1.37;;;;;;;19.45;45.56;100588.98;1803074;78;25809;-70
2022/09/12 10:56:12;;;;;;;13.03;1.40;;;;;;;19.30;45.07;100595.39;1802675;78;25694;-70
2022/09/12 10:59:13;;;;;;;10.58;1.52;;;;;;;19.19;46.00;100591.83;1800742;78;27571;-70
2022/09/12 11:01:54;;;;;;;5.42;1.30;;;;;;;18.98;45.81;100585.36;1770200;79;25762;-70
2022/09/12 11:04:52;;;;;;;7.12;1.40;;;;;;;19.11;46.98;100587.36;1802833;78;25767;-71
2022/09/12 11:07:40;;;;;;;6.10;1.37;;;;;;;19.36;46.67;100586.41;1803013;78;25855;-70
2022/09/12 11:10:37;;;;;;;2.70;1.40;;;;;;;19.68;46.35;100581.34;1802538;79;25490;-69
2022/09/12 11:13:41;;;;;;;11.10;1.35;;;;;;;19.93;45.47;100584.13;1824076;77;27504;-70
2022/09/12 11:16:34;;;;;;;;;;;;;;;20.13;45.70;100585.58;1820940;78;25839;-71
2022/09/12 11:19:13;;;;;;;2.17;1.07;;;;;;;20.42;45.84;100591.77;1828195;77;25737;-71
2022/09/12 11:21:59;;;;;;;5.20;1.17;;;;;;;20.48;44.46;100578.67;1808024;78;26626;-69
2022/09/12 11:25:18;;;;;;;8.38;1.60;;;;;;;20.48;44.82;100582.77;1805082;78;25647;-69
2022/09/12 11:28:15;;;;;;;8.88;2.40;;;;;;;20.61;44.51;100581.42;1776338;80;27589;-71
2022/09/12 11:31:26;;;;;;;5.75;1.87;;;;;;;21.11;43.74;100589.28;1808521;78;25988;-71
2022/09/12 11:33:53;;;;;;;7.60;1.65;;;;;;;21.32;42.00;100583.78;1806574;78;25689;-71
2022/09/12 11:36:50;;;;;;;2.12;1.37;;;;;;;21.04;42.77;100587.08;1803638;79;25959;-71
2022/09/12 11:39:22;;;;;;;4.78;1.22;;;;;;;21.16;43.36;100582.34;1800848;78;25435;-70
2022/09/12 11:41:57;;;;;;;9.45;1.82;;;;;;;21.46;42.09;100580.00;1804298;79;27580;-70
2022/09/12 11:44:29;;;;;;;6.50;1.17;;;;;;;21.49;42.05;100582.83;1793683;78;25765;-70
2022/09/12 11:46:57;;;;;;;1.42;1.05;;;;;;;21.50;42.16;100581.77;1797676;78;25709;-71
2022/09/12 11:49:32;;;;;;;3.85;0.88;;;;;;;21.48;42.00;100575.67;1803502;78;25796;-71
2022/09/12 11:52:26;;;;;;;2.37;1.05;;;;;;;21.17;41.53;100579.39;1801994;79;25649;-71
2022/09/12 11:55:19;;;;;;;1.82;1.15;;;;;;;20.90;42.74;100579.89;1801660;78;27476;-70
2022/09/12 11:57:55;;;;;;;6.67;1.07;;;;;;;20.69;42.79;100579.53;1803456;78;25987;-71
2022/09/12 12:00:33;;;;;;;1.77;0.82;;;;;;;20.52;43.45;100589.49;1801864;78;25808;-71
2022/09/12 12:03:29;;;;;;;4.72;1.80;;;;;;;20.51;43.80;100582.87;1802056;78;26513;-71